Time;durP1;ratioP1;P1;durP2;ratioP2;P2;SDS_P1;SDS_P2;PMS_P1;PMS_P2;Temp;Humidity;BMP_temperature;BMP_pressure;BME280_temperature;BME280_humidity;BME280_pressure;Samples;Min_cycle;Max_cycle;Signal;HPM_P1;HPM_P2
2021/11/18 00:02:05;;;;;;;25.63;10.93;;;6.20;99.90;;;;;;4180786;28;20072;-81
2021/11/18 00:04:07;;;;;;;28.23;11.93;;;6.30;99.90;;;;;;4156993;28;20041;-81
2021/11/18 00:06:18;;;;;;;26.53;10.83;;;6.30;99.90;;;;;;4177067;28;20464;-81
2021/11/18 00:08:20;;;;;;;36.88;11.38;;;6.30;99.90;;;;;;4190004;28;20477;-81
2021/11/18 00:10:36;;;;;;;26.70;12.40;;;6.30;99.90;;;;;;4187539;28;20215;-81
2021/11/18 00:12:41;;;;;;;34.13;13.27;;;6.20;99.90;;;;;;4191450;28;20156;-80
2021/11/18 00:14:43;;;;;;;27.35;13.32;;;6.20;99.90;;;;;;4173549;28;20392;-81
2021/11/18 00:16:46;;;;;;;31.38;11.00;;;6.20;99.90;;;;;;4190639;28;20036;-81
2021/11/18 00:18:48;;;;;;;30.80;13.82;;;6.30;99.90;;;;;;4172261;28;20028;-81
2021/11/18 00:20:58;;;;;;;34.08;13.13;;;6.30;99.90;;;;;;4177572;28;20512;-81
2021/11/18 00:22:59;;;;;;;37.63;12.23;;;6.20;99.90;;;;;;4167708;28;20075;-81
2021/11/18 00:25:00;;;;;;;28.08;11.82;;;6.20;99.90;;;;;;4190276;28;20360;-81
2021/11/18 00:27:00;;;;;;;34.97;12.93;;;6.40;99.90;;;;;;4196287;28;20036;-81
2021/11/18 00:29:05;;;;;;;28.05;11.45;;;6.40;99.90;;;;;;4175342;28;20489;-81
2021/11/18 00:31:18;;;;;;;30.65;11.45;;;6.40;99.90;;;;;;4152316;28;20536;-80
2021/11/18 00:33:20;;;;;;;32.33;12.60;;;6.40;99.90;;;;;;4178433;28;20041;-81
2021/11/18 00:35:26;;;;;;;28.75;12.43;;;6.40;99.90;;;;;;4158503;28;20119;-81
2021/11/18 00:37:27;;;;;;;28.90;12.57;;;6.40;99.90;;;;;;4175336;28;20479;-81
2021/11/18 00:39:28;;;;;;;29.08;11.48;;;6.40;99.90;;;;;;4180669;28;20168;-81
2021/11/18 00:41:30;;;;;;;34.47;13.10;;;6.40;99.90;;;;;;4188343;28;20076;-81
2021/11/18 00:43:36;;;;;;;36.87;12.93;;;6.40;99.90;;;;;;4191432;28;20125;-80
2021/11/18 00:45:38;;;;;;;31.38;13.07;;;6.40;99.90;;;;;;4183196;28;21162;-81
2021/11/18 00:47:39;;;;;;;28.92;11.40;;;6.40;99.90;;;;;;4174708;28;20041;-81
2021/11/18 00:49:40;;;;;;;24.08;10.98;;;6.30;99.90;;;;;;4179597;28;20508;-81
2021/11/18 00:51:42;;;;;;;39.30;12.20;;;6.20;99.90;;;;;;4188090;28;20040;-81
2021/11/18 00:53:51;;;;;;;37.97;12.73;;;6.20;99.90;;;;;;4189472;28;20411;-81
2021/11/18 00:55:52;;;;;;;28.48;11.32;;;6.20;99.90;;;;;;4177826;28;20508;-81
2021/11/18 00:57:55;;;;;;;31.27;12.18;;;6.20;99.90;;;;;;4187751;28;20040;-82
2021/11/18 00:59:55;;;;;;;36.53;13.48;;;6.20;99.90;;;;;;4187513;28;20404;-82
2021/11/18 01:02:03;;;;;;;50.30;15.43;;;6.20;99.90;;;;;;4187203;28;20044;-81
2021/11/18 01:04:03;;;;;;;43.38;13.05;;;6.20;99.90;;;;;;4189707;28;20025;-81
2021/11/18 01:06:04;;;;;;;27.42;12.32;;;6.20;99.90;;;;;;4177643;28;20043;-81
2021/11/18 01:08:08;;;;;;;36.42;12.95;;;6.30;99.90;;;;;;4175908;28;20045;-82
2021/11/18 01:10:15;;;;;;;37.35;15.23;;;6.30;99.90;;;;;;4177487;28;20049;-81
2021/11/18 01:12:16;;;;;;;30.15;13.02;;;6.30;99.90;;;;;;4187043;28;20721;-81
2021/11/18 01:14:20;;;;;;;33.28;12.48;;;6.30;99.90;;;;;;4188470;28;20040;-81
2021/11/18 01:16:26;;;;;;;30.95;12.50;;;6.30;99.90;;;;;;4176850;28;20063;-82
2021/11/18 01:18:27;;;;;;;30.27;11.85;;;6.20;99.90;;;;;;4171329;28;20044;-81
2021/11/18 01:20:36;;;;;;;31.55;12.70;;;6.20;99.90;;;;;;4184855;28;20078;-81
2021/11/18 01:22:46;;;;;;;36.10;16.45;;;6.20;99.90;;;;;;4185363;28;20036;-81
2021/11/18 01:24:46;;;;;;;36.92;13.82;;;6.20;99.90;;;;;;4188385;28;20075;-81
2021/11/18 01:26:48;;;;;;;35.05;14.02;;;6.20;99.90;;;;;;4170101;28;20041;-81
2021/11/18 01:28:49;;;;;;;45.30;14.90;;;6.30;99.90;;;;;;4180633;28;20033;-81
2021/11/18 01:30:50;;;;;;;44.13;17.00;;;6.30;99.90;;;;;;4162793;28;20114;-81
2021/11/18 01:32:59;;;;;;;30.33;13.85;;;6.30;99.90;;;;;;4186909;28;20422;-81
2021/11/18 01:35:00;;;;;;;31.58;14.68;;;6.30;99.90;;;;;;4171901;28;20098;-81
2021/11/18 01:37:00;;;;;;;38.42;14.20;;;6.40;99.90;;;;;;4164194;28;20532;-81
2021/11/18 01:39:05;;;;;;;36.33;14.55;;;6.40;99.90;;;;;;4194676;28;20574;-81
2021/11/18 01:41:26;;;;;;;36.00;14.30;;;6.40;99.90;;;;;;4175070;28;20025;-81
2021/11/18 01:43:39;;;;;;;30.63;13.23;;;6.40;99.90;;;;;;4199400;28;20479;-82
2021/11/18 01:45:41;;;;;;;33.65;14.32;;;6.40;99.90;;;;;;4184376;28;20099;-81
2021/11/18 01:47:46;;;;;;;30.08;13.75;;;6.40;99.90;;;;;;4182156;28;20053;-83
2021/11/18 01:49:51;;;;;;;34.47;14.93;;;6.30;99.90;;;;;;4189831;28;20405;-81
2021/11/18 01:51:59;;;;;;;26.02;13.43;;;6.30;99.90;;;;;;4180107;28;20084;-81
2021/11/18 01:54:06;;;;;;;39.30;14.20;;;6.20;99.90;;;;;;4169695;28;20034;-81
2021/11/18 01:56:23;;;;;;;35.60;12.75;;;6.20;99.90;;;;;;4190795;28;20440;-82
2021/11/18 01:58:24;;;;;;;36.95;14.88;;;6.20;99.90;;;;;;4177013;28;20880;-81
2021/11/18 02:00:37;;;;;;;37.42;12.80;;;6.20;99.90;;;;;;4174231;28;20037;-81
2021/11/18 02:02:44;;;;;;;39.38;13.32;;;6.20;99.90;;;;;;4179811;28;20456;-81
2021/11/18 02:05:13;;;;;;;38.03;13.70;;;6.20;99.90;;;;;;4172859;28;20464;-82
2021/11/18 02:07:27;;;;;;;39.65;14.63;;;6.20;99.90;;;;;;4163173;28;20108;-81
2021/11/18 02:09:43;;;;;;;30.05;12.10;;;6.30;99.90;;;;;;4173578;28;20079;-81
2021/11/18 02:11:54;;;;;;;33.75;13.05;;;6.30;99.90;;;;;;4162589;28;20099;-82
2021/11/18 02:13:57;;;;;;;42.72;15.45;;;6.30;99.90;;;;;;4182385;28;20095;-81
2021/11/18 02:16:02;;;;;;;40.90;15.65;;;6.30;99.90;;;;;;4184007;28;20057;-81
2021/11/18 02:18:17;;;;;;;46.78;15.23;;;6.30;99.90;;;;;;4181290;28;20480;-82
2021/11/18 02:20:41;;;;;;;30.35;13.30;;;6.20;99.90;;;;;;4180932;28;20032;-82
2021/11/18 02:22:44;;;;;;;61.63;20.88;;;6.30;99.90;;;;;;4168020;28;20091;-82
2021/11/18 02:24:52;;;;;;;48.03;15.73;;;6.30;99.90;;;;;;4158598;28;20045;-82
2021/11/18 02:27:02;;;;;;;34.40;14.27;;;6.30;99.90;;;;;;4181867;28;20042;-82
2021/11/18 02:29:19;;;;;;;45.60;15.30;;;6.40;99.90;;;;;;4187499;28;20067;-82
2021/11/18 02:31:31;;;;;;;41.65;15.23;;;6.50;99.90;;;;;;4163392;28;20045;-81
2021/11/18 02:33:32;;;;;;;34.13;14.43;;;6.50;99.90;;;;;;4162661;28;20037;-81
2021/11/18 02:35:38;;;;;;;44.80;16.05;;;6.60;99.90;;;;;;4184046;28;20041;-82
2021/11/18 02:37:40;;;;;;;50.70;16.80;;;6.70;99.90;;;;;;4176607;28;20045;-82
2021/11/18 02:39:43;;;;;;;48.40;14.23;;;6.70;99.90;;;;;;4161130;28;20033;-83
2021/11/18 02:41:49;;;;;;;38.67;15.15;;;6.70;99.90;;;;;;4173344;28;20132;-84
2021/11/18 02:43:52;;;;;;;35.05;16.20;;;6.70;99.90;;;;;;4189552;28;20037;-81
2021/11/18 02:45:59;;;;;;;46.17;15.88;;;6.80;99.90;;;;;;4162168;28;20052;-83
2021/11/18 02:48:06;;;;;;;39.45;14.93;;;6.80;99.90;;;;;;4166998;28;20430;-81
2021/11/18 02:50:12;;;;;;;25.08;12.45;;;6.90;99.90;;;;;;4178072;28;20300;-82
2021/11/18 02:52:25;;;;;;;32.08;14.45;;;6.80;99.90;;;;;;4170632;28;20583;-82
2021/11/18 02:54:25;;;;;;;35.07;14.37;;;6.90;99.90;;;;;;4181134;28;20175;-81
2021/11/18 02:56:29;;;;;;;39.05;15.88;;;6.90;99.90;;;;;;4182255;28;20754;-82
2021/11/18 02:58:36;;;;;;;37.28;15.40;;;6.90;99.90;;;;;;4167082;28;20037;-81
2021/11/18 03:01:21;;;;;;;43.78;13.80;;;6.90;99.90;;;;;;4164567;28;20038;-81
2021/11/18 03:03:24;;;;;;;33.47;14.02;;;7.00;99.90;;;;;;4174118;28;20040;-82
2021/11/18 03:05:26;;;;;;;39.10;14.00;;;7.00;99.90;;;;;;4202754;28;20032;-82
2021/11/18 03:07:27;;;;;;;36.67;14.95;;;7.00;99.90;;;;;;4175725;28;20040;-81
2021/11/18 03:09:30;;;;;;;37.42;14.20;;;7.00;99.90;;;;;;4185637;28;20104;-82
2021/11/18 03:11:32;;;;;;;36.95;15.20;;;7.10;99.90;;;;;;4175403;28;20049;-82
2021/11/18 03:13:33;;;;;;;40.25;15.00;;;7.10;99.90;;;;;;4182328;28;20070;-82
2021/11/18 03:15:40;;;;;;;36.42;14.40;;;7.10;99.90;;;;;;4176450;28;20083;-82
2021/11/18 03:17:42;;;;;;;35.42;14.88;;;7.10;99.90;;;;;;4193620;28;20067;-82
2021/11/18 03:19:44;;;;;;;36.75;13.80;;;7.10;99.90;;;;;;4180802;28;20077;-82
2021/11/18 03:21:46;;;;;;;38.17;14.55;;;7.10;99.90;;;;;;4188502;28;20621;-83
2021/11/18 03:23:56;;;;;;;38.25;14.15;;;7.20;99.90;;;;;;4173062;28;20033;-82
2021/11/18 03:25:58;;;;;;;33.80;13.90;;;7.30;99.90;;;;;;4168818;28;20091;-81
2021/11/18 03:27:59;;;;;;;38.70;13.98;;;7.30;99.90;;;;;;4172060;28;20049;-82
2021/11/18 03:30:07;;;;;;;38.50;14.13;;;7.40;99.90;;;;;;4162656;28;20030;-82
2021/11/18 03:32:08;;;;;;;42.78;15.60;;;7.40;99.90;;;;;;4180892;28;20044;-82
2021/11/18 03:34:14;;;;;;;36.97;13.73;;;7.30;99.90;;;;;;4186410;28;20025;-82
2021/11/18 03:36:17;;;;;;;32.47;16.40;;;7.30;99.90;;;;;;4170060;28;20045;-81
2021/11/18 03:38:18;;;;;;;41.33;14.70;;;7.20;99.90;;;;;;4173065;28;20125;-82
2021/11/18 03:40:30;;;;;;;46.45;14.70;;;7.20;99.90;;;;;;4175552;28;20120;-82
2021/11/18 03:42:32;;;;;;;38.58;15.18;;;7.20;99.90;;;;;;4185807;28;20049;-82
2021/11/18 03:44:33;;;;;;;31.70;13.82;;;7.20;99.90;;;;;;4160086;28;20500;-81
2021/11/18 03:46:43;;;;;;;49.65;15.23;;;7.20;99.90;;;;;;4190815;28;20032;-81
2021/11/18 03:48:44;;;;;;;35.03;15.25;;;7.30;99.90;;;;;;4177724;28;20075;-82
2021/11/18 03:50:49;;;;;;;38.67;14.85;;;7.30;99.90;;;;;;4193191;28;20064;-82
2021/11/18 03:52:57;;;;;;;40.17;14.95;;;7.30;99.90;;;;;;4172357;28;20049;-82
2021/11/18 03:55:09;;;;;;;35.03;16.67;;;7.30;99.90;;;;;;4171270;28;20040;-82
2021/11/18 03:57:11;;;;;;;39.08;15.52;;;7.30;99.90;;;;;;4162863;28;20524;-82
2021/11/18 03:59:20;;;;;;;28.58;13.77;;;7.30;99.90;;;;;;4179578;28;20021;-82
2021/11/18 04:01:26;;;;;;;46.35;16.13;;;7.20;99.90;;;;;;4188058;28;20116;-82
2021/11/18 04:03:28;;;;;;;40.33;14.60;;;7.30;99.90;;;;;;4180190;28;20071;-81
2021/11/18 04:05:42;;;;;;;30.52;13.93;;;7.40;99.90;;;;;;4191419;28;20443;-82
2021/11/18 04:08:11;;;;;;;44.13;14.70;;;7.40;99.90;;;;;;4193898;28;20141;-82
2021/11/18 04:10:20;;;;;;;39.75;15.63;;;7.30;99.90;;;;;;4179013;28;20040;-82
2021/11/18 04:12:21;;;;;;;35.85;15.25;;;7.30;99.90;;;;;;4172780;28;20041;-81
2021/11/18 04:14:23;;;;;;;34.15;14.73;;;7.30;99.90;;;;;;4164311;28;20376;-82
2021/11/18 04:16:30;;;;;;;35.95;14.52;;;7.30;99.90;;;;;;4187628;28;20064;-81
2021/11/18 04:18:32;;;;;;;44.42;14.32;;;7.30;99.90;;;;;;4176948;28;20037;-82
2021/11/18 04:20:34;;;;;;;39.20;13.95;;;7.40;99.90;;;;;;4192659;28;20215;-81
2021/11/18 04:22:48;;;;;;;37.22;15.02;;;7.40;99.90;;;;;;4159931;28;20046;-81
2021/11/18 04:24:48;;;;;;;;;;;7.40;99.90;;;;;;4179792;28;21952;-81
2021/11/18 04:26:50;;;;;;;29.63;12.80;;;7.40;99.90;;;;;;4171820;28;19921;-81
2021/11/18 04:28:52;;;;;;;50.42;15.05;;;7.40;99.90;;;;;;4192197;28;20055;-81
2021/11/18 04:31:07;;;;;;;30.98;13.30;;;7.40;99.90;;;;;;4196901;28;20089;-81
2021/11/18 04:33:21;;;;;;;36.58;13.77;;;7.40;99.90;;;;;;4168236;28;20037;-81
2021/11/18 04:35:32;;;;;;;33.85;14.45;;;7.40;99.90;;;;;;4176056;28;20041;-82
2021/11/18 04:37:34;;;;;;;36.80;14.50;;;7.40;99.90;;;;;;4183328;28;20114;-82
2021/11/18 04:39:36;;;;;;;30.90;14.43;;;7.30;99.90;;;;;;4183467;28;20072;-81
2021/11/18 04:41:37;;;;;;;30.02;12.63;;;7.30;99.90;;;;;;4177843;28;20488;-81
2021/11/18 04:43:45;;;;;;;40.72;14.82;;;7.30;99.90;;;;;;4187448;28;20127;-81
2021/11/18 04:45:48;;;;;;;28.92;13.48;;;7.30;99.90;;;;;;4192864;28;20067;-81
2021/11/18 04:48:03;;;;;;;38.85;14.98;;;7.40;99.90;;;;;;4174060;28;20073;-82
2021/11/18 04:50:08;;;;;;;44.70;13.48;;;7.30;99.90;;;;;;4171994;28;20041;-81
2021/11/18 04:52:13;;;;;;;45.90;16.95;;;7.30;99.90;;;;;;4174753;28;20543;-81
2021/11/18 04:54:22;;;;;;;33.08;13.52;;;7.30;99.90;;;;;;4181167;28;20040;-82
2021/11/18 04:56:26;;;;;;;30.92;14.13;;;7.30;99.90;;;;;;4191019;28;20048;-82
2021/11/18 04:58:27;;;;;;;28.65;13.55;;;7.30;99.90;;;;;;4196277;28;20045;-81
2021/11/18 05:00:45;;;;;;;34.15;13.73;;;7.40;99.90;;;;;;4195475;28;20533;-82
2021/11/18 05:02:58;;;;;;;36.80;14.13;;;7.40;99.90;;;;;;4185923;28;20069;-82
2021/11/18 05:05:00;;;;;;;35.00;14.63;;;7.30;99.90;;;;;;4170158;28;20037;-82
2021/11/18 05:07:00;;;;;;;36.08;13.32;;;7.30;99.90;;;;;;4169076;28;20072;-82
2021/11/18 05:09:07;;;;;;;30.50;12.45;;;7.30;99.90;;;;;;4169069;28;21853;-81
2021/11/18 05:11:18;;;;;;;40.30;14.50;;;7.30;99.90;;;;;;4192027;28;20040;-81
2021/11/18 05:13:24;;;;;;;38.90;14.38;;;7.20;99.90;;;;;;4162409;28;20040;-82
2021/11/18 05:15:37;;;;;;;38.00;14.52;;;7.20;99.90;;;;;;4184772;28;20040;-82
2021/11/18 05:17:45;;;;;;;33.45;13.55;;;7.20;99.90;;;;;;4174028;28;20473;-81
2021/11/18 05:19:53;;;;;;;42.63;15.05;;;7.30;99.90;;;;;;4173083;28;20071;-82
2021/11/18 05:22:03;;;;;;;43.67;14.13;;;7.30;99.90;;;;;;4184004;28;20107;-82
2021/11/18 05:24:05;;;;;;;42.75;16.00;;;7.30;99.90;;;;;;4172594;28;20132;-81
2021/11/18 05:26:33;;;;;;;39.97;14.63;;;7.40;99.90;;;;;;4188507;28;20041;-82
2021/11/18 05:28:35;;;;;;;37.42;13.52;;;7.40;99.90;;;;;;4162942;28;20104;-82
2021/11/18 05:30:38;;;;;;;44.60;15.73;;;7.40;99.90;;;;;;4167719;28;20050;-82
2021/11/18 05:32:39;;;;;;;;;;;7.40;99.90;;;;;;4175952;28;20481;-82
2021/11/18 05:34:46;;;;;;;41.15;13.55;;;7.40;99.90;;;;;;4177568;28;19952;-82
2021/11/18 05:36:47;;;;;;;40.13;15.48;;;7.40;99.90;;;;;;4178272;28;20033;-81
2021/11/18 05:38:50;;;;;;;40.72;14.88;;;7.40;99.90;;;;;;4176583;28;20650;-82
2021/11/18 05:40:58;;;;;;;39.53;14.48;;;7.40;99.90;;;;;;4194093;28;20052;-82
2021/11/18 05:43:01;;;;;;;38.05;14.82;;;7.50;99.90;;;;;;4166913;28;20164;-82
2021/11/18 05:45:07;;;;;;;37.60;12.98;;;7.50;99.90;;;;;;4187517;28;20517;-82
2021/11/18 05:47:18;;;;;;;33.05;13.40;;;7.40;99.90;;;;;;4186712;28;20040;-81
2021/11/18 05:49:19;;;;;;;34.22;13.27;;;7.30;99.90;;;;;;4175963;28;20064;-81
2021/11/18 05:51:21;;;;;;;44.50;14.75;;;7.40;99.90;;;;;;4187972;28;20033;-82
2021/11/18 05:53:32;;;;;;;30.58;11.75;;;7.50;99.90;;;;;;4159404;28;20095;-82
2021/11/18 05:55:35;;;;;;;35.83;14.02;;;7.40;99.90;;;;;;4181533;28;20044;-81
2021/11/18 05:57:36;;;;;;;33.72;13.05;;;7.40;99.90;;;;;;4187297;28;20546;-81
2021/11/18 05:59:37;;;;;;;36.05;17.20;;;7.50;99.90;;;;;;4191260;28;20044;-81
2021/11/18 06:01:40;;;;;;;34.63;14.35;;;7.50;99.90;;;;;;4184152;28;20056;-81
2021/11/18 06:03:41;;;;;;;39.28;14.98;;;7.50;99.90;;;;;;4192492;28;20037;-81
2021/11/18 06:05:42;;;;;;;38.40;13.25;;;7.60;99.90;;;;;;4181518;28;20072;-81
2021/11/18 06:07:43;;;;;;;34.88;13.48;;;7.60;99.90;;;;;;4165276;28;20070;-82
2021/11/18 06:09:51;;;;;;;33.63;13.23;;;7.60;99.90;;;;;;4170416;28;20044;-82
2021/11/18 06:11:59;;;;;;;29.30;13.85;;;7.70;99.90;;;;;;4181946;28;20049;-83
2021/11/18 06:14:08;;;;;;;33.90;15.38;;;7.70;99.90;;;;;;4184455;28;20033;-83
2021/11/18 06:16:11;;;;;;;24.25;11.82;;;7.60;99.90;;;;;;4163724;28;20536;-82
2021/11/18 06:18:12;;;;;;;35.58;14.25;;;7.60;99.90;;;;;;4174887;28;20033;-82
2021/11/18 06:20:23;;;;;;;37.72;15.15;;;7.50;99.90;;;;;;4162123;28;20038;-82
2021/11/18 06:22:27;;;;;;;37.38;14.00;;;7.50;99.90;;;;;;4166511;28;20036;-83
2021/11/18 06:24:27;;;;;;;;;;;7.50;99.90;;;;;;4184863;28;20053;-82
2021/11/18 06:26:28;;;;;;;34.75;13.60;;;7.50;99.90;;;;;;4172325;28;20020;-81
2021/11/18 06:28:29;;;;;;;39.03;14.27;;;7.50;99.90;;;;;;4146384;28;20034;-81
2021/11/18 06:31:05;;;;;;;33.92;13.13;;;7.50;99.90;;;;;;4184680;28;20045;-81
2021/11/18 06:33:08;;;;;;;28.58;10.93;;;7.50;99.90;;;;;;4167651;28;20068;-82
2021/11/18 06:35:17;;;;;;;31.67;13.82;;;7.40;99.90;;;;;;4167577;28;20033;-81
2021/11/18 06:37:19;;;;;;;34.22;13.60;;;7.50;99.90;;;;;;4191226;28;20025;-82
2021/11/18 06:39:21;;;;;;;46.45;15.30;;;7.30;99.90;;;;;;4165811;28;20052;-82
2021/11/18 06:41:37;;;;;;;38.28;14.27;;;7.30;99.90;;;;;;4168623;28;20040;-82
2021/11/18 06:43:45;;;;;;;45.00;15.27;;;7.20;99.90;;;;;;4193586;28;20426;-82
2021/11/18 06:45:49;;;;;;;35.40;15.32;;;7.10;99.90;;;;;;4174123;28;20029;-82
2021/11/18 06:47:51;;;;;;;49.78;17.15;;;7.00;99.90;;;;;;4191137;28;20033;-81
2021/11/18 06:49:57;;;;;;;47.58;16.63;;;6.90;99.90;;;;;;4194480;28;20475;-81
2021/11/18 06:52:08;;;;;;;48.25;15.05;;;6.90;99.90;;;;;;4175695;28;20101;-81
2021/11/18 06:54:13;;;;;;;45.15;15.80;;;6.80;99.90;;;;;;4186577;28;20061;-81
2021/11/18 06:56:26;;;;;;;40.40;15.55;;;6.80;99.90;;;;;;4175325;28;20053;-80
2021/11/18 06:58:27;;;;;;;43.47;15.55;;;6.80;99.90;;;;;;4163338;28;20392;-81
2021/11/18 07:00:38;;;;;;;35.15;15.02;;;6.80;99.90;;;;;;4159588;28;20124;-81
2021/11/18 07:02:39;;;;;;;39.33;16.20;;;6.80;99.90;;;;;;4173156;28;20051;-80
2021/11/18 07:04:58;;;;;;;36.65;16.98;;;6.90;99.90;;;;;;4171429;28;20043;-82
2021/11/18 07:07:11;;;;;;;48.67;16.23;;;6.90;99.90;;;;;;4160930;28;20036;-82
2021/11/18 07:09:20;;;;;;;49.70;16.85;;;7.00;99.90;;;;;;4175293;28;20503;-82
2021/11/18 07:11:25;;;;;;;48.92;16.83;;;7.10;99.90;;;;;;4169472;28;20053;-84
2021/11/18 07:13:29;;;;;;;47.65;16.92;;;7.00;99.90;;;;;;4183025;28;20423;-83
2021/11/18 07:15:31;;;;;;;52.55;18.05;;;7.00;99.90;;;;;;4173304;28;20140;-81
2021/11/18 07:17:46;;;;;;;51.97;18.38;;;7.00;99.90;;;;;;4171974;28;20043;-81
2021/11/18 07:19:52;;;;;;;36.22;15.77;;;6.90;99.90;;;;;;4175020;28;20080;-82
2021/11/18 07:21:53;;;;;;;54.83;19.15;;;7.00;99.90;;;;;;4165630;28;20095;-81
2021/11/18 07:23:56;;;;;;;53.25;18.05;;;7.00;99.90;;;;;;4161191;28;20041;-80
2021/11/18 07:26:08;;;;;;;57.70;18.80;;;7.00;99.90;;;;;;4181136;28;20045;-81
2021/11/18 07:28:10;;;;;;;47.50;18.80;;;7.00;99.90;;;;;;4193064;28;20086;-79
2021/11/18 07:30:12;;;;;;;46.10;16.27;;;6.90;99.90;;;;;;4179105;28;20398;-81
2021/11/18 07:32:14;;;;;;;49.40;17.02;;;7.00;99.90;;;;;;4164951;28;20080;-82
2021/11/18 07:34:16;;;;;;;45.75;16.77;;;7.00;99.90;;;;;;4183355;28;20359;-82
2021/11/18 07:36:17;;;;;;;48.25;17.45;;;7.00;99.90;;;;;;4171875;28;20116;-82
2021/11/18 07:38:30;;;;;;;48.10;18.45;;;7.00;99.90;;;;;;4169971;28;20033;-81
2021/11/18 07:40:34;;;;;;;44.08;16.58;;;6.90;99.90;;;;;;4196616;28;20037;-81
2021/11/18 07:42:36;;;;;;;61.00;18.80;;;6.90;99.90;;;;;;4175364;28;20041;-81
2021/11/18 07:44:37;;;;;;;60.00;21.30;;;6.90;99.90;;;;;;4170421;28;20041;-81
2021/11/18 07:46:38;;;;;;;36.88;16.23;;;6.90;99.90;;;;;;4182672;28;20135;-82
2021/11/18 07:48:49;;;;;;;47.60;17.08;;;7.00;99.90;;;;;;4191955;28;20126;-80
2021/11/18 07:50:50;;;;;;;44.30;14.82;;;7.10;99.90;;;;;;4178559;28;20113;-82
2021/11/18 07:52:51;;;;;;;57.55;17.98;;;7.10;99.90;;;;;;4184635;28;20028;-80
2021/11/18 07:54:52;;;;;;;48.72;17.95;;;7.20;99.90;;;;;;4193027;28;20087;-81
2021/11/18 07:57:03;;;;;;;48.97;19.02;;;7.20;99.90;;;;;;4197119;28;20469;-81
2021/11/18 07:59:05;;;;;;;53.53;17.67;;;7.20;99.90;;;;;;4175844;28;20040;-80
2021/11/18 08:01:07;;;;;;;53.17;16.92;;;7.20;99.90;;;;;;4176885;28;20039;-83
2021/11/18 08:03:12;;;;;;;53.10;18.50;;;7.20;99.90;;;;;;4178080;28;20033;-81
2021/11/18 08:05:15;;;;;;;47.95;18.50;;;7.20;99.90;;;;;;4188717;28;20286;-80
2021/11/18 08:07:16;;;;;;;54.17;17.53;;;7.20;99.90;;;;;;4187264;28;20041;-80
2021/11/18 08:09:17;;;;;;;43.10;16.00;;;7.30;99.90;;;;;;4191602;28;20318;-80
2021/11/18 08:11:44;;;;;;;62.65;21.58;;;7.40;99.90;;;;;;4172506;28;20033;-81
2021/11/18 08:13:48;;;;;;;48.88;18.40;;;7.40;99.90;;;;;;4174416;28;20660;-81
2021/11/18 08:15:49;;;;;;;43.58;17.92;;;7.40;99.90;;;;;;4163915;28;20533;-82
2021/11/18 08:17:51;;;;;;;37.60;19.20;;;7.40;99.90;;;;;;4186212;28;20086;-82
2021/11/18 08:19:57;;;;;;;42.97;18.08;;;7.40;99.90;;;;;;4183471;28;20098;-82
2021/11/18 08:22:07;;;;;;;52.72;17.83;;;7.40;99.90;;;;;;4169302;28;20072;-81
2021/11/18 08:24:11;;;;;;;40.63;17.42;;;7.50;99.90;;;;;;4186150;28;21416;-82
2021/11/18 08:26:16;;;;;;;45.25;17.25;;;7.40;99.90;;;;;;4172883;28;20037;-81
2021/11/18 08:28:24;;;;;;;42.42;18.42;;;7.40;99.90;;;;;;4182652;28;20029;-82
2021/11/18 08:30:42;;;;;;;51.55;16.65;;;7.50;99.90;;;;;;4179475;28;20047;-80
2021/11/18 08:32:53;;;;;;;61.25;18.70;;;7.50;99.90;;;;;;4188681;28;20040;-82
2021/11/18 08:34:54;;;;;;;48.28;19.20;;;7.50;99.90;;;;;;4182787;28;20040;-81
2021/11/18 08:36:55;;;;;;;44.63;18.98;;;7.50;99.90;;;;;;4195127;28;20070;-81
2021/11/18 08:38:56;;;;;;;40.47;17.10;;;7.70;99.90;;;;;;4177696;28;20037;-81
2021/11/18 08:41:05;;;;;;;48.55;15.93;;;7.70;99.90;;;;;;4177423;28;20048;-82
2021/11/18 08:43:08;;;;;;;41.72;16.25;;;7.80;99.90;;;;;;4182184;28;20033;-81
2021/11/18 08:45:15;;;;;;;53.22;16.40;;;7.80;99.90;;;;;;4175080;28;20029;-81
2021/11/18 08:47:17;;;;;;;44.33;18.02;;;7.90;99.90;;;;;;4178116;28;20519;-81
2021/11/18 08:49:26;;;;;;;44.75;16.02;;;7.90;99.90;;;;;;4167644;28;20060;-81
2021/11/18 08:51:30;;;;;;;41.17;15.68;;;7.90;99.90;;;;;;4177156;28;20104;-82
2021/11/18 08:53:39;;;;;;;43.95;15.77;;;7.90;99.90;;;;;;4178227;28;20167;-82
2021/11/18 08:55:48;;;;;;;43.15;15.80;;;8.00;99.90;;;;;;4190287;28;20044;-82
2021/11/18 08:57:56;;;;;;;48.03;18.27;;;8.00;99.90;;;;;;4178730;28;20037;-81
2021/11/18 09:00:11;;;;;;;44.45;17.80;;;8.00;99.90;;;;;;4163356;28;20099;-82
2021/11/18 09:02:23;;;;;;;45.90;17.40;;;8.10;99.90;;;;;;4190119;28;20527;-81
2021/11/18 09:04:25;;;;;;;52.85;20.48;;;8.10;99.90;;;;;;4174881;28;20037;-81
2021/11/18 09:06:26;;;;;;;42.97;18.00;;;8.10;99.90;;;;;;4191090;28;20036;-82
2021/11/18 09:08:27;;;;;;;44.75;18.42;;;8.20;99.90;;;;;;4165136;28;20060;-81
2021/11/18 09:10:28;;;;;;;47.70;17.23;;;8.30;99.90;;;;;;4165143;28;20040;-81
2021/11/18 09:12:30;;;;;;;38.83;16.88;;;8.40;99.90;;;;;;4176927;28;20060;-81
2021/11/18 09:14:31;;;;;;;38.65;17.27;;;8.50;99.90;;;;;;4179739;28;20051;-81
2021/11/18 09:16:42;;;;;;;41.55;17.10;;;8.50;99.90;;;;;;4182170;28;20090;-83
2021/11/18 09:19:03;;;;;;;43.80;16.85;;;8.60;99.90;;;;;;4178607;28;20037;-82
2021/11/18 09:21:05;;;;;;;47.92;16.85;;;8.70;99.90;;;;;;4176246;28;20585;-83
2021/11/18 09:23:07;;;;;;;39.03;17.55;;;8.70;99.90;;;;;;4189361;28;20165;-82
2021/11/18 09:25:11;;;;;;;41.72;18.38;;;8.70;99.90;;;;;;4177403;28;20075;-82
2021/11/18 09:27:28;;;;;;;41.42;16.13;;;8.60;99.90;;;;;;4172636;28;20041;-82
2021/11/18 09:29:35;;;;;;;38.75;16.75;;;8.60;99.90;;;;;;4174423;28;20049;-82
2021/11/18 09:31:36;;;;;;;32.75;15.18;;;8.60;99.90;;;;;;4178353;28;20103;-81
2021/11/18 09:33:39;;;;;;;42.67;17.10;;;8.50;99.90;;;;;;4191857;28;20460;-81
2021/11/18 09:35:43;;;;;;;;;;;8.50;99.90;;;;;;4191143;28;20503;-82
2021/11/18 09:37:58;;;;;;;39.47;16.80;;;8.60;99.90;;;;;;4175595;28;19912;-82
2021/11/18 09:40:27;;;;;;;42.05;14.20;;;8.70;99.90;;;;;;4190641;28;20033;-82
2021/11/18 09:42:46;;;;;;;47.75;17.48;;;8.80;99.90;;;;;;4194079;28;20475;-82
2021/11/18 09:45:13;;;;;;;47.20;16.75;;;8.90;99.90;;;;;;4176986;28;20132;-82
2021/11/18 09:48:02;;;;;;;44.30;15.85;;;9.10;99.90;;;;;;4178493;28;20040;-82
2021/11/18 09:50:43;;;;;;;42.53;15.93;;;9.20;99.90;;;;;;4181673;28;20044;-82
2021/11/18 09:53:08;;;;;;;39.58;14.63;;;9.40;99.90;;;;;;4185567;28;20040;-82
2021/11/18 09:55:44;;;;;;;43.22;15.73;;;9.50;99.90;;;;;;4191956;28;20052;-82
2021/11/18 09:58:29;;;;;;;34.50;16.30;;;9.70;99.90;;;;;;4188543;28;20036;-83
2021/11/18 10:00:42;;;;;;;39.78;16.48;;;9.80;99.90;;;;;;4193745;28;20053;-83
2021/11/18 10:03:23;;;;;;;46.83;14.93;;;10.00;99.90;;;;;;4186056;28;20048;-83
2021/11/18 10:05:50;;;;;;;39.33;18.55;;;10.10;99.90;;;;;;4180198;28;20806;-81
2021/11/18 10:08:16;;;;;;;34.45;15.18;;;10.30;99.90;;;;;;4188818;28;20451;-82
2021/11/18 10:10:32;;;;;;;37.95;14.32;;;10.80;99.90;;;;;;4182651;28;20040;-81
2021/11/18 10:13:26;;;;;;;41.10;16.38;;;11.00;99.90;;;;;;4201741;28;20043;-81
2021/11/18 10:15:39;;;;;;;37.53;14.52;;;10.90;99.90;;;;;;4192705;28;20124;-83
2021/11/18 10:17:53;;;;;;;33.78;16.27;;;11.20;99.90;;;;;;4181736;28;20045;-83
2021/11/18 10:20:26;;;;;;;39.63;16.35;;;11.50;99.90;;;;;;4176840;28;20578;-83
2021/11/18 10:22:31;;;;;;;37.38;15.15;;;11.80;99.90;;;;;;4192027;28;20155;-83
2021/11/18 10:24:38;;;;;;;36.65;14.02;;;11.70;99.90;;;;;;4193092;28;20143;-83
2021/11/18 10:26:57;;;;;;;39.33;17.67;;;11.90;99.90;;;;;;4173256;28;20067;-83
2021/11/18 10:29:12;;;;;;;34.47;13.77;;;12.00;99.90;;;;;;4178149;28;20045;-81
2021/11/18 10:31:41;;;;;;;37.97;15.45;;;12.20;99.90;;;;;;4167553;28;20044;-82
2021/11/18 10:34:10;;;;;;;48.47;15.65;;;12.20;99.90;;;;;;4176656;28;20037;-83
2021/11/18 10:36:39;;;;;;;34.90;15.00;;;12.40;99.90;;;;;;4188096;28;20060;-83
2021/11/18 10:39:03;;;;;;;30.38;13.02;;;12.40;99.90;;;;;;4178675;28;20102;-83
2021/11/18 10:41:28;;;;;;;40.72;14.73;;;12.50;99.90;;;;;;4172125;28;20036;-84
2021/11/18 10:43:38;;;;;;;39.13;14.18;;;12.80;99.90;;;;;;4189597;28;20124;-83
2021/11/18 10:45:50;;;;;;;40.85;13.82;;;13.10;99.90;;;;;;4156018;28;20399;-83
2021/11/18 10:48:36;;;;;;;25.67;12.05;;;13.10;99.90;;;;;;4153924;28;20044;-84
2021/11/18 10:50:54;;;;;;;37.95;12.15;;;13.40;99.90;;;;;;4186862;28;20044;-85
2021/11/18 10:53:25;;;;;;;32.72;12.82;;;13.40;99.90;;;;;;4183364;28;20053;-83
2021/11/18 10:55:44;;;;;;;31.05;13.35;;;13.40;99.90;;;;;;4188032;28;20463;-84
2021/11/18 10:58:10;;;;;;;30.90;13.27;;;13.50;99.90;;;;;;4190634;28;20036;-85
2021/11/18 11:00:30;;;;;;;38.45;14.73;;;13.80;99.90;;;;;;4167017;28;20445;-83